Time;durP1;ratioP1;P1;durP2;ratioP2;P2;SDS_P1;SDS_P2;PMS_P1;PMS_P2;Temp;Humidity;BMP_temperature;BMP_pressure;BME280_temperature;BME280_humidity;BME280_pressure;Samples;Min_cycle;Max_cycle;Signal;HPM_P1;HPM_P2
2021/03/27 00:02:35;;;;;;;27.60;14.68;;;;;;;;;;4993548;28;20030;-73
2021/03/27 00:05:01;;;;;;;;;;;;;;;;;;4993670;28;20093;-72
2021/03/27 00:07:33;;;;;;;25.15;15.32;;;;;;;;;;4993387;28;19905;-72
2021/03/27 00:10:13;;;;;;;24.20;16.15;;;;;;;;;;4993437;28;20034;-72
2021/03/27 00:12:42;;;;;;;22.05;14.45;;;;;;;;;;4993285;28;20509;-72
2021/03/27 00:15:11;;;;;;;25.23;15.23;;;;;;;;;;4993076;28;20038;-72
2021/03/27 00:17:45;;;;;;;25.17;15.98;;;;;;;;;;4993261;28;20018;-72
2021/03/27 00:20:26;;;;;;;23.55;15.00;;;;;;;;;;4993343;28;20351;-72
2021/03/27 00:22:59;;;;;;;26.55;16.02;;;;;;;;;;4992976;28;20057;-73
2021/03/27 00:25:28;;;;;;;22.55;15.38;;;;;;;;;;4993324;28;20022;-73
2021/03/27 00:28:09;;;;;;;24.42;16.00;;;;;;;;;;4993162;28;20033;-73
2021/03/27 00:30:42;;;;;;;21.25;13.80;;;;;;;;;;4975518;28;20525;-72
2021/03/27 00:33:07;;;;;;;;;;;;;;;;;;4994315;28;20040;-73
2021/03/27 00:35:35;;;;;;;25.90;16.65;;;;;;;;;;4993232;28;19964;-72
2021/03/27 00:38:09;;;;;;;28.52;17.00;;;;;;;;;;4993178;28;20043;-72
2021/03/27 00:40:40;;;;;;;24.25;15.70;;;;;;;;;;4992771;28;20425;-72
2021/03/27 00:43:13;;;;;;;29.58;16.30;;;;;;;;;;4992192;28;20026;-73
2021/03/27 00:45:41;;;;;;;28.40;16.73;;;;;;;;;;4974950;28;20023;-72
2021/03/27 00:48:11;;;;;;;26.25;14.98;;;;;;;;;;4992615;28;20369;-72
2021/03/27 00:50:42;;;;;;;23.35;15.23;;;;;;;;;;4992836;28;20544;-73
2021/03/27 00:53:11;;;;;;;33.13;17.05;;;;;;;;;;4974859;28;20046;-72
2021/03/27 00:55:49;;;;;;;27.27;15.60;;;;;;;;;;4991844;28;20096;-73
2021/03/27 00:58:20;;;;;;;21.77;15.20;;;;;;;;;;4992343;28;20027;-73
2021/03/27 01:00:48;;;;;;;26.20;15.75;;;;;;;;;;4992555;28;20042;-72
2021/03/27 01:03:18;;;;;;;23.70;15.90;;;;;;;;;;4975080;28;20036;-74
2021/03/27 01:05:45;;;;;;;24.33;16.52;;;;;;;;;;4974708;28;20044;-73
2021/03/27 01:08:13;;;;;;;31.13;17.30;;;;;;;;;;4975002;28;20026;-74
2021/03/27 01:11:00;;;;;;;24.23;15.90;;;;;;;;;;4975084;28;20516;-73
2021/03/27 01:13:33;;;;;;;30.35;17.45;;;;;;;;;;4991994;28;20030;-73
2021/03/27 01:16:02;;;;;;;26.15;16.48;;;;;;;;;;4974277;28;20030;-73
2021/03/27 01:18:36;;;;;;;26.63;16.48;;;;;;;;;;4992165;28;20124;-73
2021/03/27 01:21:05;;;;;;;26.90;16.83;;;;;;;;;;4974356;28;20042;-73
2021/03/27 01:23:32;;;;;;;27.00;16.35;;;;;;;;;;4991765;28;20104;-73
2021/03/27 01:26:04;;;;;;;25.05;15.90;;;;;;;;;;4991905;28;20026;-72
2021/03/27 01:28:36;;;;;;;25.40;16.48;;;;;;;;;;4992187;28;20061;-73
2021/03/27 01:31:05;;;;;;;26.42;16.65;;;;;;;;;;4991932;28;20356;-72
2021/03/27 01:33:34;;;;;;;26.45;15.52;;;;;;;;;;4991810;28;20022;-73
2021/03/27 01:36:03;;;;;;;22.50;15.45;;;;;;;;;;4992101;28;20030;-73
2021/03/27 01:38:38;;;;;;;27.48;16.25;;;;;;;;;;4991771;28;20073;-72
2021/03/27 01:41:13;;;;;;;24.05;15.20;;;;;;;;;;4991478;28;20096;-72
2021/03/27 01:43:45;;;;;;;24.63;14.90;;;;;;;;;;4990780;28;20049;-72
2021/03/27 01:46:26;;;;;;;25.83;16.33;;;;;;;;;;4991644;28;20035;-72
2021/03/27 01:49:02;;;;;;;24.83;16.38;;;;;;;;;;4991393;28;20053;-72
2021/03/27 01:51:46;;;;;;;27.40;15.55;;;;;;;;;;4991576;28;20031;-72
2021/03/27 01:54:14;;;;;;;30.77;16.80;;;;;;;;;;4991536;28;20045;-73
2021/03/27 01:57:01;;;;;;;27.65;17.35;;;;;;;;;;4974038;28;20049;-73
2021/03/27 01:59:33;;;;;;;30.50;17.10;;;;;;;;;;4974385;28;20022;-72
2021/03/27 02:02:09;;;;;;;26.35;16.45;;;;;;;;;;4974545;28;20104;-73
2021/03/27 02:04:37;;;;;;;32.08;18.27;;;;;;;;;;4974465;28;20487;-72
2021/03/27 02:07:04;;;;;;;28.65;17.20;;;;;;;;;;4991954;28;20026;-73
2021/03/27 02:10:02;;;;;;;27.70;17.10;;;;;;;;;;4992548;28;20510;-73
2021/03/27 02:12:33;;;;;;;27.80;17.13;;;;;;;;;;4956990;28;20030;-72
2021/03/27 02:15:07;;;;;;;27.80;16.73;;;;;;;;;;4978311;28;20027;-72
2021/03/27 02:17:48;;;;;;;31.15;18.08;;;;;;;;;;4995509;28;20483;-72
2021/03/27 02:20:28;;;;;;;26.05;16.75;;;;;;;;;;4977852;28;20063;-73
2021/03/27 02:22:54;;;;;;;27.08;17.80;;;;;;;;;;4977576;28;20780;-73
2021/03/27 02:25:23;;;;;;;24.40;16.10;;;;;;;;;;4977720;28;20019;-72
2021/03/27 02:27:52;;;;;;;27.17;17.67;;;;;;;;;;4977904;28;20073;-72
2021/03/27 02:30:28;;;;;;;24.77;17.33;;;;;;;;;;4993711;28;20065;-72
2021/03/27 02:33:14;;;;;;;30.13;17.88;;;;;;;;;;4977398;28;20045;-73
2021/03/27 02:35:50;;;;;;;29.73;17.55;;;;;;;;;;4977555;28;20553;-71
2021/03/27 02:38:24;;;;;;;31.08;20.45;;;;;;;;;;4977614;28;20033;-72
2021/03/27 02:41:02;;;;;;;30.65;19.10;;;;;;;;;;4977730;28;20042;-73
2021/03/27 02:43:36;;;;;;;31.60;18.00;;;;;;;;;;4977183;28;20073;-73
2021/03/27 02:46:17;;;;;;;30.42;20.23;;;;;;;;;;4977762;28;20022;-72
2021/03/27 02:48:44;;;;;;;33.17;21.08;;;;;;;;;;4977837;28;20026;-72
2021/03/27 02:51:14;;;;;;;30.50;19.63;;;;;;;;;;4995306;28;20034;-72
2021/03/27 02:53:49;;;;;;;27.95;18.85;;;;;;;;;;4995121;28;20101;-73
2021/03/27 02:56:38;;;;;;;33.38;20.95;;;;;;;;;;4994912;28;20034;-73
2021/03/27 02:59:20;;;;;;;31.67;20.60;;;;;;;;;;4977298;28;20475;-73
2021/03/27 03:01:46;;;;;;;35.28;21.50;;;;;;;;;;4995041;28;20435;-73
2021/03/27 03:04:30;;;;;;;35.00;21.17;;;;;;;;;;4995003;28;20526;-72
2021/03/27 03:06:59;;;;;;;30.25;19.30;;;;;;;;;;4995117;28;20058;-73
2021/03/27 03:09:44;;;;;;;32.80;21.40;;;;;;;;;;4994809;28;20098;-72
2021/03/27 03:12:10;;;;;;;33.33;20.48;;;;;;;;;;4995121;28;20018;-72
2021/03/27 03:14:55;;;;;;;30.90;20.13;;;;;;;;;;4977285;28;20035;-73
2021/03/27 03:17:24;;;;;;;33.40;21.55;;;;;;;;;;4994958;28;20030;-73
2021/03/27 03:19:53;;;;;;;31.17;20.02;;;;;;;;;;4977171;28;20029;-72
2021/03/27 03:22:25;;;;;;;34.00;22.17;;;;;;;;;;4994506;28;20494;-73
2021/03/27 03:24:57;;;;;;;33.08;21.75;;;;;;;;;;4994645;28;20026;-73
2021/03/27 03:27:23;;;;;;;33.80;21.37;;;;;;;;;;4975429;28;20034;-72
2021/03/27 03:29:51;;;;;;;34.00;21.33;;;;;;;;;;4975201;28;20273;-73
2021/03/27 03:32:27;;;;;;;38.70;20.83;;;;;;;;;;4957718;28;20034;-73
2021/03/27 03:34:59;;;;;;;34.13;22.40;;;;;;;;;;4974873;28;20121;-73
2021/03/27 03:37:28;;;;;;;35.30;22.08;;;;;;;;;;4992342;28;20184;-72
2021/03/27 03:40:08;;;;;;;29.40;20.45;;;;;;;;;;4994019;28;20100;-73
2021/03/27 03:42:53;;;;;;;32.90;19.92;;;;;;;;;;4994230;28;20025;-72
2021/03/27 03:45:48;;;;;;;31.92;21.58;;;;;;;;;;4989809;28;20033;-72
2021/03/27 03:48:26;;;;;;;33.80;22.20;;;;;;;;;;4939984;28;20078;-72
2021/03/27 03:50:52;;;;;;;38.20;22.67;;;;;;;;;;4957451;28;20027;-72
2021/03/27 03:53:23;;;;;;;37.75;23.65;;;;;;;;;;4957324;28;20438;-73
2021/03/27 03:56:07;;;;;;;40.60;24.23;;;;;;;;;;4974652;28;20022;-72
2021/03/27 03:58:45;;;;;;;38.67;23.85;;;;;;;;;;4990503;28;20080;-73
2021/03/27 04:01:15;;;;;;;34.10;22.45;;;;;;;;;;4993765;28;20113;-73
2021/03/27 04:03:56;;;;;;;30.80;20.70;;;;;;;;;;4993846;28;20498;-73
2021/03/27 04:06:25;;;;;;;30.73;20.50;;;;;;;;;;4993815;28;20038;-73
2021/03/27 04:09:17;;;;;;;34.13;21.80;;;;;;;;;;4993622;28;20030;-72
2021/03/27 04:11:52;;;;;;;30.90;21.70;;;;;;;;;;4990968;28;20041;-73
2021/03/27 04:14:24;;;;;;;33.50;22.63;;;;;;;;;;4976538;28;20089;-73
2021/03/27 04:16:51;;;;;;;35.03;23.02;;;;;;;;;;4993685;28;20049;-73
2021/03/27 04:19:24;;;;;;;37.92;23.65;;;;;;;;;;4993332;28;20030;-73
2021/03/27 04:21:54;;;;;;;35.20;24.27;;;;;;;;;;4975844;28;20034;-73
2021/03/27 04:24:24;;;;;;;32.25;22.42;;;;;;;;;;4975968;28;20030;-73
2021/03/27 04:27:17;;;;;;;34.17;23.25;;;;;;;;;;4975950;28;20419;-72
2021/03/27 04:29:47;;;;;;;31.52;21.98;;;;;;;;;;4971605;28;20515;-73
2021/03/27 04:32:22;;;;;;;33.75;22.85;;;;;;;;;;4992917;28;20057;-72
2021/03/27 04:35:07;;;;;;;33.38;22.30;;;;;;;;;;4993495;28;20029;-72
2021/03/27 04:37:38;;;;;;;32.28;21.02;;;;;;;;;;4993337;28;20057;-73
2021/03/27 04:40:16;;;;;;;37.10;23.50;;;;;;;;;;4993408;28;20491;-71
2021/03/27 04:42:48;;;;;;;31.55;21.48;;;;;;;;;;4993244;28;20145;-73
2021/03/27 04:45:25;;;;;;;34.85;22.45;;;;;;;;;;4975779;28;20023;-72
2021/03/27 04:48:00;;;;;;;33.85;22.75;;;;;;;;;;4993269;28;20019;-73
2021/03/27 04:50:41;;;;;;;38.50;23.02;;;;;;;;;;4975614;28;20026;-73
2021/03/27 04:53:26;;;;;;;34.95;22.77;;;;;;;;;;4993062;28;20050;-73
2021/03/27 04:56:07;;;;;;;33.63;22.05;;;;;;;;;;4993247;28;20024;-72
2021/03/27 04:58:33;;;;;;;31.38;21.20;;;;;;;;;;4993093;28;20100;-73
2021/03/27 05:01:14;;;;;;;34.83;22.30;;;;;;;;;;4992884;28;20642;-72
2021/03/27 05:03:43;;;;;;;34.35;21.90;;;;;;;;;;4975548;28;20033;-72
2021/03/27 05:06:18;;;;;;;35.88;22.95;;;;;;;;;;4992852;28;20084;-73
2021/03/27 05:09:03;;;;;;;33.78;22.25;;;;;;;;;;4975201;28;20511;-72
2021/03/27 05:11:48;;;;;;;32.40;23.00;;;;;;;;;;4992604;28;20029;-73
2021/03/27 05:14:37;;;;;;;31.35;21.40;;;;;;;;;;4992794;28;20026;-73
2021/03/27 05:17:03;;;;;;;32.63;20.92;;;;;;;;;;4964895;28;20035;-72
2021/03/27 05:19:29;;;;;;;27.05;20.17;;;;;;;;;;4992095;28;20029;-73
2021/03/27 05:22:33;;;;;;;27.63;20.27;;;;;;;;;;4992397;28;20042;-72
2021/03/27 05:25:21;;;;;;;27.63;19.83;;;;;;;;;;4932068;29;20174;-73
2021/03/27 05:27:47;;;;;;;30.05;21.23;;;;;;;;;;4916229;29;20063;-72
2021/03/27 05:30:28;;;;;;;30.13;20.17;;;;;;;;;;4952604;28;20035;-72
2021/03/27 05:32:54;;;;;;;28.17;20.05;;;;;;;;;;4992404;28;20026;-72
2021/03/27 05:35:41;;;;;;;30.67;21.17;;;;;;;;;;4992399;28;20033;-72
2021/03/27 05:38:10;;;;;;;30.73;20.88;;;;;;;;;;4992304;28;20024;-73
2021/03/27 05:40:46;;;;;;;29.85;20.92;;;;;;;;;;4991863;28;20034;-72
2021/03/27 05:43:12;;;;;;;29.08;20.80;;;;;;;;;;4992082;28;20390;-72
2021/03/27 05:45:38;;;;;;;32.55;23.08;;;;;;;;;;4973166;28;20085;-72
2021/03/27 05:48:04;;;;;;;31.63;22.17;;;;;;;;;;4992381;28;20030;-72
2021/03/27 05:50:49;;;;;;;31.15;20.88;;;;;;;;;;4991929;28;20369;-72
2021/03/27 05:53:27;;;;;;;31.85;22.02;;;;;;;;;;4974587;28;20498;-72
2021/03/27 05:55:59;;;;;;;33.35;21.58;;;;;;;;;;4974838;28;20030;-72
2021/03/27 05:58:25;;;;;;;26.70;20.38;;;;;;;;;;4974622;28;20142;-72
2021/03/27 06:00:51;;;;;;;30.25;21.00;;;;;;;;;;4991938;28;20026;-72
2021/03/27 06:03:32;;;;;;;31.83;21.10;;;;;;;;;;4992076;28;20150;-73
2021/03/27 06:06:13;;;;;;;29.95;20.40;;;;;;;;;;4991497;28;20586;-73
2021/03/27 06:08:42;;;;;;;31.80;20.35;;;;;;;;;;4991317;28;20519;-73
2021/03/27 06:11:33;;;;;;;32.50;20.88;;;;;;;;;;4991272;28;20026;-73
2021/03/27 06:14:11;;;;;;;34.92;20.85;;;;;;;;;;4991277;28;20034;-72
2021/03/27 06:16:37;;;;;;;28.80;19.55;;;;;;;;;;4973097;28;20026;-73
2021/03/27 06:19:03;;;;;;;29.58;20.15;;;;;;;;;;4973213;28;20033;-73
2021/03/27 06:21:29;;;;;;;30.63;21.70;;;;;;;;;;4990961;28;20097;-72
2021/03/27 06:24:11;;;;;;;30.27;20.98;;;;;;;;;;4991231;28;20050;-73
2021/03/27 06:26:37;;;;;;;29.08;18.90;;;;;;;;;;4991264;28;20760;-73
2021/03/27 06:29:29;;;;;;;29.63;20.05;;;;;;;;;;4990091;28;20101;-73
2021/03/27 06:31:55;;;;;;;28.52;19.05;;;;;;;;;;4971786;28;20026;-72
2021/03/27 06:34:27;;;;;;;27.92;19.10;;;;;;;;;;4954526;28;20077;-73
2021/03/27 06:36:53;;;;;;;28.27;18.98;;;;;;;;;;4972262;28;20033;-72
2021/03/27 06:39:38;;;;;;;27.42;19.38;;;;;;;;;;4955079;28;20117;-73
2021/03/27 06:42:23;;;;;;;27.23;18.08;;;;;;;;;;4969029;28;20044;-73
2021/03/27 06:45:07;;;;;;;29.75;19.55;;;;;;;;;;4974254;28;20419;-73
2021/03/27 06:47:39;;;;;;;26.15;18.85;;;;;;;;;;4991683;28;20033;-73
2021/03/27 06:50:05;;;;;;;27.40;19.35;;;;;;;;;;4974231;28;20511;-73
2021/03/27 06:52:31;;;;;;;27.58;19.27;;;;;;;;;;4991051;28;20023;-73
2021/03/27 06:55:13;;;;;;;29.20;20.05;;;;;;;;;;4991527;28;20023;-73
2021/03/27 06:57:42;;;;;;;30.15;19.23;;;;;;;;;;4993517;28;20081;-72
2021/03/27 07:00:26;;;;;;;25.30;17.77;;;;;;;;;;4975761;28;20041;-73
2021/03/27 07:03:11;;;;;;;24.42;16.55;;;;;;;;;;4993434;28;20044;-72
2021/03/27 07:05:56;;;;;;;24.70;15.75;;;;;;;;;;4975675;28;20065;-72
2021/03/27 07:08:25;;;;;;;24.20;16.48;;;;;;;;;;4993614;28;20041;-73
2021/03/27 07:11:10;;;;;;;22.98;14.88;;;;;;;;;;4993401;28;20100;-73
2021/03/27 07:13:38;;;;;;;22.48;15.38;;;;;;;;;;4991336;28;20558;-72
2021/03/27 07:16:05;;;;;;;29.52;15.48;;;;;;;;;;4991694;28;20083;-72
2021/03/27 07:18:51;;;;;;;22.83;14.10;;;;;;;;;;4991989;28;20079;-72
2021/03/27 07:21:17;;;;;;;22.10;15.30;;;;;;;;;;4972335;28;20050;-72
2021/03/27 07:24:02;;;;;;;21.00;14.35;;;;;;;;;;4995348;28;20044;-73
2021/03/27 07:26:40;;;;;;;23.05;14.55;;;;;;;;;;5013155;28;20520;-71
2021/03/27 07:29:33;;;;;;;22.80;14.93;;;;;;;;;;5007123;28;20406;-71
2021/03/27 07:32:14;;;;;;;20.08;13.98;;;;;;;;;;4988476;28;20574;-71
2021/03/27 07:34:46;;;;;;;21.08;13.90;;;;;;;;;;4993278;28;20023;-71
2021/03/27 07:37:18;;;;;;;20.83;14.32;;;;;;;;;;4993076;28;20031;-71
2021/03/27 07:39:50;;;;;;;21.80;14.27;;;;;;;;;;4993143;28;20019;-71
2021/03/27 07:42:37;;;;;;;23.50;14.32;;;;;;;;;;4991003;28;20121;-71
2021/03/27 07:45:05;;;;;;;24.80;14.52;;;;;;;;;;4993131;28;20077;-71
2021/03/27 07:47:39;;;;;;;25.08;15.38;;;;;;;;;;4975514;28;20042;-71
2021/03/27 07:50:05;;;;;;;21.38;14.30;;;;;;;;;;4992871;28;20391;-71
2021/03/27 07:52:31;;;;;;;21.42;14.85;;;;;;;;;;4992397;28;20033;-71
2021/03/27 07:54:57;;;;;;;21.35;13.48;;;;;;;;;;5012401;28;20113;-71
2021/03/27 07:57:42;;;;;;;20.80;13.68;;;;;;;;;;5012374;28;20139;-71
2021/03/27 08:00:28;;;;;;;18.70;13.25;;;;;;;;;;4994487;28;20041;-71
2021/03/27 08:03:12;;;;;;;19.20;12.80;;;;;;;;;;5012017;28;20041;-71
2021/03/27 08:05:57;;;;;;;26.02;13.88;;;;;;;;;;5011571;28;20100;-71
2021/03/27 08:08:29;;;;;;;20.10;12.82;;;;;;;;;;5000212;28;20554;-71
2021/03/27 08:11:13;;;;;;;17.40;10.82;;;;;;;;;;4981443;28;20030;-71
2021/03/27 08:13:48;;;;;;;19.67;11.57;;;;;;;;;;5006387;28;20018;-71
2021/03/27 08:16:18;;;;;;;20.05;13.00;;;;;;;;;;4997401;28;20080;-71
2021/03/27 08:19:04;;;;;;;22.30;12.98;;;;;;;;;;5000649;28;20569;-72
2021/03/27 08:21:33;;;;;;;18.77;12.90;;;;;;;;;;4963682;28;20042;-71
2021/03/27 08:24:25;;;;;;;18.73;11.90;;;;;;;;;;4971368;28;20155;-71
2021/03/27 08:26:57;;;;;;;22.77;13.88;;;;;;;;;;4951408;28;20110;-72
2021/03/27 08:29:42;;;;;;;20.98;11.23;;;;;;;;;;4989647;28;20058;-71
2021/03/27 08:32:11;;;;;;;21.60;10.93;;;;;;;;;;4991900;28;20033;-71
2021/03/27 08:35:04;;;;;;;16.45;10.68;;;;;;;;;;4991867;28;20027;-71
2021/03/27 08:37:33;;;;;;;18.80;12.27;;;;;;;;;;4991873;28;20491;-70
2021/03/27 08:40:17;;;;;;;17.92;10.38;;;;;;;;;;4974596;28;20035;-71
2021/03/27 08:42:46;;;;;;;16.58;10.45;;;;;;;;;;4965291;28;20138;-71
2021/03/27 08:45:19;;;;;;;29.48;11.73;;;;;;;;;;4992144;28;20026;-69
2021/03/27 08:47:48;;;;;;;38.63;12.23;;;;;;;;;;4972772;28;20038;-73
2021/03/27 08:50:23;;;;;;;21.08;10.38;;;;;;;;;;4986521;28;20481;-73
2021/03/27 08:52:49;;;;;;;23.38;9.30;;;;;;;;;;4991733;28;20022;-73
2021/03/27 08:55:34;;;;;;;19.00;9.63;;;;;;;;;;4991393;28;20081;-72
2021/03/27 08:58:09;;;;;;;18.73;9.35;;;;;;;;;;4990963;28;20467;-70
2021/03/27 09:00:41;;;;;;;15.07;9.13;;;;;;;;;;4972203;28;20368;-74
2021/03/27 09:03:07;;;;;;;;;;;;;;;;;;4974138;28;20034;-77
2021/03/27 09:06:11;;;;;;;15.18;9.68;;;;;;;;;;4991390;28;19909;-80
2021/03/27 09:08:40;;;;;;;14.10;8.55;;;;;;;;;;4930980;29;20031;-73
2021/03/27 09:11:21;;;;;;;15.30;8.82;;;;;;;;;;4930516;29;20090;-82
2021/03/27 09:14:07;;;;;;;16.20;9.40;;;;;;;;;;4955530;28;20022;-73
2021/03/27 09:16:52;;;;;;;14.43;9.05;;;;;;;;;;4971967;28;20050;-74
2021/03/27 09:19:24;;;;;;;14.65;8.70;;;;;;;;;;4983932;28;20041;-75
2021/03/27 09:22:05;;;;;;;15.98;9.38;;;;;;;;;;4990949;28;20398;-74
2021/03/27 09:24:41;;;;;;;15.93;7.67;;;;;;;;;;4979055;28;20608;-70
2021/03/27 09:27:25;;;;;;;13.40;6.72;;;;;;;;;;4981870;28;20023;-70
2021/03/27 09:30:06;;;;;;;12.35;6.85;;;;;;;;;;4991723;28;20062;-71
2021/03/27 09:32:47;;;;;;;18.60;8.02;;;;;;;;;;4971196;28;20114;-70
2021/03/27 09:35:13;;;;;;;12.87;7.67;;;;;;;;;;4972543;28;20030;-71
2021/03/27 09:37:45;;;;;;;12.88;6.25;;;;;;;;;;4990170;28;20100;-71
2021/03/27 09:40:19;;;;;;;9.65;6.32;;;;;;;;;;4974141;28;20022;-71
2021/03/27 09:42:55;;;;;;;9.88;5.80;;;;;;;;;;4995303;28;20030;-71
2021/03/27 09:45:22;;;;;;;10.52;5.80;;;;;;;;;;4985651;28;20070;-71
2021/03/27 09:48:07;;;;;;;16.15;6.72;;;;;;;;;;4990508;28;20057;-71
2021/03/27 09:50:54;;;;;;;23.25;7.75;;;;;;;;;;4991589;28;20064;-73
2021/03/27 09:53:39;;;;;;;12.15;6.88;;;;;;;;;;4991290;28;20120;-71
2021/03/27 09:56:08;;;;;;;19.85;6.22;;;;;;;;;;4991429;28;20042;-71
2021/03/27 09:58:50;;;;;;;16.65;6.10;;;;;;;;;;4974049;28;20177;-71
2021/03/27 10:01:40;;;;;;;23.23;8.05;;;;;;;;;;4989256;28;20100;-71
2021/03/27 10:04:06;;;;;;;23.42;7.43;;;;;;;;;;4962700;28;20092;-70
2021/03/27 10:06:41;;;;;;;14.23;5.45;;;;;;;;;;4989796;28;20027;-72
2021/03/27 10:09:13;;;;;;;16.88;5.65;;;;;;;;;;4971571;28;20485;-70
2021/03/27 10:11:41;;;;;;;16.48;6.05;;;;;;;;;;4988603;28;20078;-72
2021/03/27 10:14:17;;;;;;;34.92;7.40;;;;;;;;;;4990288;28;20022;-75
2021/03/27 10:16:49;;;;;;;19.25;7.00;;;;;;;;;;4973410;28;20030;-73
2021/03/27 10:19:19;;;;;;;20.92;8.63;;;;;;;;;;4982926;28;20034;-76
2021/03/27 10:21:54;;;;;;;31.80;8.60;;;;;;;;;;4972949;28;20468;-74
2021/03/27 10:24:26;;;;;;;23.10;7.45;;;;;;;;;;4983281;28;20086;-73
2021/03/27 10:27:11;;;;;;;34.28;7.53;;;;;;;;;;4989311;28;20029;-70
2021/03/27 10:29:42;;;;;;;19.60;6.82;;;;;;;;;;5005572;28;20076;-72
2021/03/27 10:32:23;;;;;;;19.40;6.43;;;;;;;;;;5012288;28;20006;-72
2021/03/27 10:34:54;;;;;;;36.47;6.28;;;;;;;;;;4976023;28;20125;-75
2021/03/27 10:37:20;;;;;;;23.23;6.65;;;;;;;;;;4959250;28;20026;-74
2021/03/27 10:39:46;;;;;;;33.95;6.38;;;;;;;;;;4975917;28;20107;-75
2021/03/27 10:42:31;;;;;;;25.13;6.28;;;;;;;;;;4988231;28;20038;-74
2021/03/27 10:45:03;;;;;;;21.60;5.60;;;;;;;;;;4995111;28;20037;-75
2021/03/27 10:48:04;;;;;;;12.38;5.88;;;;;;;;;;4993477;28;20022;-75
2021/03/27 10:50:35;;;;;;;12.70;5.93;;;;;;;;;;4977436;28;20088;-75
2021/03/27 10:53:11;;;;;;;18.25;6.45;;;;;;;;;;4995024;28;20050;-75
2021/03/27 10:55:55;;;;;;;11.35;5.00;;;;;;;;;;4995016;28;20069;-74
2021/03/27 10:58:34;;;;;;;18.98;5.97;;;;;;;;;;4976999;28;20676;-74
2021/03/27 11:01:19;;;;;;;12.13;6.20;;;;;;;;;;4976170;28;20034;-74
2021/03/27 11:04:12;;;;;;;13.45;4.95;;;;;;;;;;4994987;28;20068;-73
2021/03/27 11:06:44;;;;;;;13.82;5.03;;;;;;;;;;4992895;28;20039;-76
2021/03/27 11:09:13;;;;;;;13.48;5.00;;;;;;;;;;4994556;28;20058;-75
2021/03/27 11:11:40;;;;;;;10.77;5.43;;;;;;;;;;4994540;28;20498;-74
2021/03/27 11:14:25;;;;;;;9.57;4.82;;;;;;;;;;4994666;28;20022;-74
2021/03/27 11:17:10;;;;;;;11.68;4.57;;;;;;;;;;4994502;28;20097;-75
2021/03/27 11:19:42;;;;;;;12.50;4.40;;;;;;;;;;4993860;28;20092;-74
2021/03/27 11:22:08;;;;;;;;;;;;;;;;;;4976884;28;20054;-74
2021/03/27 11:24:40;;;;;;;9.77;5.20;;;;;;;;;;4994560;28;20374;-74
2021/03/27 11:27:12;;;;;;;11.43;6.20;;;;;;;;;;4976795;28;20058;-76
2021/03/27 11:29:41;;;;;;;7.68;4.22;;;;;;;;;;4994296;28;20035;-75
2021/03/27 11:32:16;;;;;;;7.75;4.43;;;;;;;;;;4994208;28;20062;-75
2021/03/27 11:34:45;;;;;;;9.50;4.47;;;;;;;;;;4994156;28;20022;-77
2021/03/27 11:37:27;;;;;;;10.35;4.75;;;;;;;;;;4976573;28;20010;-75
2021/03/27 11:39:56;;;;;;;13.85;5.10;;;;;;;;;;4976244;28;20036;-75
2021/03/27 11:42:41;;;;;;;8.88;4.70;;;;;;;;;;4992745;28;20031;-75
2021/03/27 11:45:12;;;;;;;6.55;4.20;;;;;;;;;;4993872;28;20535;-75
2021/03/27 11:47:47;;;;;;;8.00;5.18;;;;;;;;;;4994327;28;20026;-75
2021/03/27 11:50:22;;;;;;;10.00;4.40;;;;;;;;;;4994177;28;20065;-76
2021/03/27 11:53:03;;;;;;;8.30;4.65;;;;;;;;;;4994028;28;20030;-75
2021/03/27 11:55:41;;;;;;;5.95;3.78;;;;;;;;;;4993966;28;20026;-74
2021/03/27 11:58:26;;;;;;;8.50;4.20;;;;;;;;;;4993742;28;20054;-75
2021/03/27 12:01:02;;;;;;;7.55;4.13;;;;;;;;;;4993675;28;20045;-75
2021/03/27 12:03:47;;;;;;;6.93;3.88;;;;;;;;;;4976436;28;20483;-75
2021/03/27 12:06:18;;;;;;;6.90;3.88;;;;;;;;;;4976281;28;20022;-75
2021/03/27 12:08:50;;;;;;;6.47;3.90;;;;;;;;;;4976333;28;20022;-76
2021/03/27 12:11:23;;;;;;;6.60;3.92;;;;;;;;;;4993600;28;20089;-76
2021/03/27 12:13:59;;;;;;;7.60;3.28;;;;;;;;;;4993413;28;20085;-75
2021/03/27 12:16:43;;;;;;;6.50;3.58;;;;;;;;;;4993499;28;20475;-75
2021/03/27 12:19:12;;;;;;;8.35;3.42;;;;;;;;;;4975652;28;20061;-75
2021/03/27 12:22:05;;;;;;;6.43;3.67;;;;;;;;;;4975873;28;20428;-75
2021/03/27 12:25:04;;;;;;;7.65;4.35;;;;;;;;;;4991378;28;20053;-75
2021/03/27 12:27:51;;;;;;;7.07;3.88;;;;;;;;;;4954160;28;20435;-74
2021/03/27 12:30:20;;;;;;;7.20;3.88;;;;;;;;;;4991803;28;20022;-74
2021/03/27 12:32:58;;;;;;;6.10;3.75;;;;;;;;;;4992174;28;20030;-74
2021/03/27 12:35:35;;;;;;;6.28;3.38;;;;;;;;;;4974633;28;20022;-74
2021/03/27 12:38:01;;;;;;;6.25;3.60;;;;;;;;;;4975780;28;20067;-74
2021/03/27 12:40:33;;;;;;;5.75;3.10;;;;;;;;;;4992958;28;20038;-74
2021/03/27 12:42:59;;;;;;;5.03;3.03;;;;;;;;;;4975684;28;20101;-74
2021/03/27 12:45:29;;;;;;;6.45;3.40;;;;;;;;;;4975627;28;20069;-74
2021/03/27 12:47:58;;;;;;;8.05;3.88;;;;;;;;;;4975628;28;20117;-75
2021/03/27 12:50:44;;;;;;;6.97;3.33;;;;;;;;;;4975381;28;20019;-74
2021/03/27 12:53:13;;;;;;;5.30;3.05;;;;;;;;;;4974735;28;20077;-74
2021/03/27 12:55:39;;;;;;;6.72;3.03;;;;;;;;;;4992561;28;20195;-74
2021/03/27 12:58:15;;;;;;;6.43;3.00;;;;;;;;;;4992704;28;20053;-74
2021/03/27 13:00:41;;;;;;;5.43;2.90;;;;;;;;;;4992467;28;20384;-75
2021/03/27 13:03:07;;;;;;;6.43;3.15;;;;;;;;;;4975149;28;20034;-75
2021/03/27 13:06:04;;;;;;;8.32;3.30;;;;;;;;;;4992677;28;20026;-74
2021/03/27 13:08:37;;;;;;;6.43;2.97;;;;;;;;;;4987709;28;20057;-74
2021/03/27 13:11:21;;;;;;;6.38;2.78;;;;;;;;;;4992285;28;20023;-74
2021/03/27 13:13:53;;;;;;;5.43;2.80;;;;;;;;;;4975089;28;20061;-74
2021/03/27 13:16:24;;;;;;;6.43;2.95;;;;;;;;;;4974864;28;20053;-74
2021/03/27 13:19:07;;;;;;;8.27;2.85;;;;;;;;;;4973672;28;20038;-75
2021/03/27 13:21:49;;;;;;;7.45;3.22;;;;;;;;;;4971648;28;20047;-74
2021/03/27 13:24:27;;;;;;;7.22;3.08;;;;;;;;;;4972784;28;20492;-74
2021/03/27 13:27:03;;;;;;;5.35;2.80;;;;;;;;;;4974678;28;20014;-74
2021/03/27 13:29:35;;;;;;;4.82;2.95;;;;;;;;;;4991306;28;20034;-75
2021/03/27 13:32:01;;;;;;;;;;;;;;;;;;4975240;28;20029;-74
2021/03/27 13:34:32;;;;;;;5.13;2.60;;;;;;;;;;4974801;28;19905;-74
2021/03/27 13:36:58;;;;;;;4.85;2.50;;;;;;;;;;4992181;28;20046;-74
2021/03/27 13:39:42;;;;;;;5.25;2.60;;;;;;;;;;4991933;28;20471;-74
2021/03/27 13:42:26;;;;;;;5.55;2.85;;;;;;;;;;4974438;28;20415;-74
2021/03/27 13:45:13;;;;;;;5.32;2.67;;;;;;;;;;4992182;28;20042;-74
2021/03/27 13:47:42;;;;;;;5.07;2.80;;;;;;;;;;4974570;28;20033;-74
2021/03/27 13:50:08;;;;;;;7.88;3.20;;;;;;;;;;4974564;28;20060;-74
2021/03/27 13:52:48;;;;;;;4.88;2.30;;;;;;;;;;4991805;28;20081;-74
2021/03/27 13:55:17;;;;;;;4.55;2.50;;;;;;;;;;4991698;28;20064;-74
2021/03/27 13:58:06;;;;;;;4.55;2.50;;;;;;;;;;4974485;28;20115;-74
2021/03/27 14:00:43;;;;;;;4.97;2.70;;;;;;;;;;4983642;28;20454;-74
2021/03/27 14:03:25;;;;;;;4.88;2.60;;;;;;;;;;4974241;28;20037;-74
2021/03/27 14:05:51;;;;;;;;;;;;;;;;;;4973962;28;20614;-74
2021/03/27 14:08:20;;;;;;;4.50;2.40;;;;;;;;;;4974349;28;19902;-74
2021/03/27 14:10:55;;;;;;;4.63;2.60;;;;;;;;;;4991749;28;20554;-74
2021/03/27 14:13:27;;;;;;;4.07;2.28;;;;;;;;;;4991590;28;20030;-75
2021/03/27 14:16:13;;;;;;;4.40;2.30;;;;;;;;;;4974193;28;20058;-74
2021/03/27 14:18:45;;;;;;;4.47;2.10;;;;;;;;;;4980448;28;20510;-75
2021/03/27 14:21:25;;;;;;;4.15;2.22;;;;;;;;;;4991177;28;20046;-75
2021/03/27 14:24:02;;;;;;;8.15;2.85;;;;;;;;;;4991338;28;20113;-74
2021/03/27 14:26:47;;;;;;;7.38;2.42;;;;;;;;;;4974161;28;20085;-74
2021/03/27 14:29:21;;;;;;;4.88;2.53;;;;;;;;;;4972110;28;20023;-74
2021/03/27 14:31:51;;;;;;;4.22;2.20;;;;;;;;;;4972076;28;20023;-74
2021/03/27 14:34:26;;;;;;;5.65;2.50;;;;;;;;;;4960459;28;20419;-75
2021/03/27 14:36:58;;;;;;;4.72;2.17;;;;;;;;;;4974110;28;20026;-75
2021/03/27 14:39:43;;;;;;;4.38;2.17;;;;;;;;;;4973616;28;20038;-75
2021/03/27 14:42:15;;;;;;;5.10;2.35;;;;;;;;;;4991224;28;20074;-74
2021/03/27 14:44:45;;;;;;;6.45;2.40;;;;;;;;;;4973973;28;20118;-74
2021/03/27 14:47:11;;;;;;;4.40;2.60;;;;;;;;;;4991319;28;20117;-74
2021/03/27 14:49:48;;;;;;;3.70;1.95;;;;;;;;;;4991133;28;20631;-74
2021/03/27 14:52:20;;;;;;;5.00;2.10;;;;;;;;;;4973652;28;20492;-74
2021/03/27 14:54:46;;;;;;;3.80;2.22;;;;;;;;;;4991200;28;20498;-74
2021/03/27 14:57:32;;;;;;;4.38;2.28;;;;;;;;;;4991058;28;20015;-74
2021/03/27 15:00:02;;;;;;;4.97;2.40;;;;;;;;;;4991358;28;20084;-74
2021/03/27 15:02:31;;;;;;;4.05;2.47;;;;;;;;;;4991129;28;20035;-74
2021/03/27 15:05:00;;;;;;;4.50;2.40;;;;;;;;;;4973828;28;20023;-74
2021/03/27 15:07:27;;;;;;;4.53;2.00;;;;;;;;;;4973713;28;20129;-74
2021/03/27 15:09:56;;;;;;;5.72;2.42;;;;;;;;;;4990959;28;20026;-74
2021/03/27 15:12:32;;;;;;;4.65;2.20;;;;;;;;;;4973614;28;20471;-74
2021/03/27 15:15:00;;;;;;;3.80;2.20;;;;;;;;;;4973619;28;20034;-74
2021/03/27 15:17:45;;;;;;;5.70;2.17;;;;;;;;;;4992289;28;20018;-74